createdAt,value
2022-08-06T00:00:26.997Z,19.08
2022-08-06T00:02:55.781Z,13.85
2022-08-06T00:05:29.930Z,12.68
2022-08-06T00:08:03.148Z,13.88
2022-08-06T00:10:31.905Z,15.30
2022-08-06T00:13:02.040Z,14.55
2022-08-06T00:16:09.614Z,11.23
2022-08-06T00:18:20.485Z,9.80
2022-08-06T00:20:50.557Z,9.18
2022-08-06T00:23:18.762Z,9.98
2022-08-06T00:25:53.135Z,9.90
2022-08-06T00:28:30.644Z,9.57
2022-08-06T00:31:00.991Z,8.57
2022-08-06T00:33:44.158Z,9.02
2022-08-06T00:36:25.048Z,8.85
2022-08-06T00:38:53.447Z,7.53
2022-08-06T00:41:22.359Z,7.97
2022-08-06T00:43:51.578Z,8.75
2022-08-06T00:46:19.668Z,8.68
2022-08-06T00:48:53.063Z,8.80
2022-08-06T00:51:21.616Z,7.22
2022-08-06T00:53:50.259Z,9.63
2022-08-06T00:56:27.069Z,9.20
2022-08-06T00:59:03.466Z,8.02
2022-08-06T01:01:32.944Z,8.50
2022-08-06T01:04:18.421Z,8.50
2022-08-06T01:06:57.189Z,8.93
2022-08-06T01:09:25.964Z,8.73
2022-08-06T01:11:59.017Z,9.55
2022-08-06T01:14:38.600Z,9.00
2022-08-06T01:17:16.090Z,10.27
2022-08-06T01:21:57.838Z,9.35
2022-08-06T01:23:10.532Z,8.70
2022-08-06T01:26:10.568Z,9.50
2022-08-06T01:28:46.326Z,9.48
2022-08-06T01:31:38.675Z,9.35
2022-08-06T01:34:13.425Z,10.07
2022-08-06T01:36:48.204Z,10.10
2022-08-06T01:39:21.446Z,11.30
2022-08-06T01:41:58.759Z,11.60
2022-08-06T01:44:32.873Z,11.85
2022-08-06T01:47:05.697Z,12.40
2022-08-06T01:50:01.417Z,12.48
2022-08-06T01:52:33.958Z,13.07
2022-08-06T01:55:03.811Z,13.45
2022-08-06T01:58:07.741Z,14.05
2022-08-06T02:00:29.842Z,13.98
2022-08-06T02:03:01.702Z,15.32
2022-08-06T02:05:33.596Z,15.43
2022-08-06T02:08:34.017Z,16.65
2022-08-06T02:12:01.492Z,15.73
2022-08-06T02:13:55.043Z,16.98
2022-08-06T02:16:27.528Z,17.80
2022-08-06T02:18:57.210Z,18.00
2022-08-06T02:21:32.895Z,17.08
2022-08-06T02:24:02.578Z,16.70
2022-08-06T02:26:31.873Z,16.40
2022-08-06T02:29:02.159Z,16.02
2022-08-06T02:31:47.556Z,16.75
2022-08-06T02:34:30.962Z,16.88
2022-08-06T02:37:06.291Z,18.80
2022-08-06T02:39:51.224Z,17.40
2022-08-06T02:42:25.019Z,17.85
2022-08-06T02:45:01.238Z,16.75
2022-08-06T02:47:53.299Z,17.20
2022-08-06T02:50:29.791Z,17.02
2022-08-06T02:53:08.625Z,19.25
2022-08-06T02:55:55.402Z,18.40
2022-08-06T02:58:29.197Z,18.05
2022-08-06T03:01:10.247Z,17.08
2022-08-06T03:03:54.736Z,18.05
2022-08-06T03:06:29.045Z,15.85
2022-08-06T03:09:00.018Z,18.10
2022-08-06T03:11:31.142Z,15.23
2022-08-06T03:16:31.403Z,14.32
2022-08-06T03:19:53.475Z,13.75
2022-08-06T03:21:57.456Z,13.88
2022-08-06T03:24:27.523Z,14.20
2022-08-06T03:26:59.756Z,14.75
2022-08-06T03:29:30.042Z,15.00
2022-08-06T03:32:24.441Z,16.13
2022-08-06T03:34:48.785Z,16.73
2022-08-06T03:37:21.870Z,34.97
2022-08-06T03:40:12.547Z,18.20
2022-08-06T03:42:43.908Z,20.17
2022-08-06T03:45:23.807Z,19.63
2022-08-06T03:48:07.178Z,18.55
2022-08-06T03:50:46.108Z,19.00
2022-08-06T03:53:24.946Z,19.85
2022-08-06T03:55:57.170Z,19.15
2022-08-06T04:01:02.185Z,19.58
2022-08-06T04:03:39.859Z,20.15
2022-08-06T04:06:16.249Z,19.80
2022-08-06T04:08:48.708Z,18.92
2022-08-06T04:12:13.761Z,18.25
2022-08-06T04:14:08.727Z,17.75
2022-08-06T04:16:37.912Z,16.83
2022-08-06T04:19:09.313Z,17.15
2022-08-06T04:22:59.043Z,17.48
2022-08-06T04:24:32.386Z,15.93
2022-08-06T04:27:05.229Z,15.95
2022-08-06T04:29:56.312Z,14.82
2022-08-06T04:32:29.415Z,16.02
2022-08-06T04:36:08.152Z,10.52
2022-08-06T04:37:52.998Z,12.77
2022-08-06T04:40:35.003Z,13.57
2022-08-06T04:43:10.680Z,12.77
2022-08-06T04:46:16.964Z,12.70
2022-08-06T04:48:39.690Z,12.00
2022-08-06T04:51:10.314Z,11.13
2022-08-06T04:53:57.724Z,11.65
2022-08-06T04:56:29.887Z,11.90
2022-08-06T04:59:05.470Z,11.77
2022-08-06T05:01:40.818Z,10.35
2022-08-06T05:04:23.455Z,10.25
2022-08-06T05:06:57.502Z,19.10
2022-08-06T05:09:43.147Z,10.88
2022-08-06T05:12:22.110Z,10.05
2022-08-06T05:14:55.997Z,8.85
2022-08-06T05:17:29.727Z,9.57
2022-08-06T05:20:07.613Z,8.82
2022-08-06T05:23:01.057Z,9.27
2022-08-06T05:25:35.883Z,8.52
2022-08-06T05:28:10.933Z,8.88
2022-08-06T05:30:47.264Z,8.00
2022-08-06T05:33:24.647Z,7.35
2022-08-06T05:36:01.913Z,7.97
2022-08-06T05:38:36.325Z,28.08
2022-08-06T05:41:08.521Z,11.07
2022-08-06T05:43:59.768Z,7.95
2022-08-06T05:46:26.368Z,6.75
2022-08-06T05:49:02.250Z,6.07
2022-08-06T05:51:45.761Z,6.20
2022-08-06T05:54:24.054Z,5.78
2022-08-06T05:57:04.931Z,5.00
2022-08-06T05:59:38.353Z,5.55
2022-08-06T06:02:27.140Z,4.78
2022-08-06T06:06:03.451Z,4.65
2022-08-06T06:08:10.387Z,4.65
2022-08-06T06:10:35.014Z,3.38
2022-08-06T06:13:25.492Z,3.80
2022-08-06T06:16:04.611Z,4.05
2022-08-06T06:18:45.905Z,4.07
2022-08-06T06:21:32.196Z,3.70
2022-08-06T06:24:09.106Z,3.92
2022-08-06T06:26:44.359Z,4.13
2022-08-06T06:30:01.880Z,3.83
2022-08-06T06:32:28.573Z,4.70
2022-08-06T06:35:07.244Z,3.67
2022-08-06T06:37:42.037Z,3.78
2022-08-06T06:40:20.987Z,3.47
2022-08-06T06:42:57.059Z,4.05
2022-08-06T06:46:05.078Z,3.83
2022-08-06T06:48:27.673Z,3.33
2022-08-06T06:51:01.175Z,3.63
2022-08-06T06:54:07.319Z,3.90
2022-08-06T06:56:32.490Z,3.70
2022-08-06T06:59:04.178Z,4.00
2022-08-06T07:01:47.719Z,3.38
2022-08-06T07:04:27.019Z,4.05
2022-08-06T07:07:07.602Z,3.88
2022-08-06T07:09:40.381Z,3.90
2022-08-06T07:12:14.514Z,3.80
2022-08-06T07:14:58.243Z,4.07
2022-08-06T07:17:46.638Z,3.55
2022-08-06T07:20:26.031Z,4.43
2022-08-06T07:24:05.775Z,4.05
2022-08-06T07:25:54.424Z,3.75
2022-08-06T07:28:27.765Z,3.58
2022-08-06T07:31:04.684Z,3.13
2022-08-06T07:34:01.222Z,3.70
2022-08-06T07:36:32.475Z,2.50
2022-08-06T07:39:08.874Z,3.58
2022-08-06T07:42:07.018Z,4.78
2022-08-06T07:44:34.406Z,3.95
2022-08-06T07:47:29.712Z,3.83
2022-08-06T07:50:16.613Z,3.85
2022-08-06T07:52:45.305Z,3.50
2022-08-06T07:55:15.890Z,3.60
2022-08-06T07:57:55.002Z,4.00
2022-08-06T08:00:24.593Z,3.90
2022-08-06T08:03:42.896Z,4.15
2022-08-06T08:06:21.936Z,3.80
2022-08-06T08:08:51.483Z,4.25
2022-08-06T08:11:38.139Z,3.80
2022-08-06T08:14:10.629Z,3.70
2022-08-06T08:16:41.761Z,3.85
2022-08-06T08:19:23.413Z,3.65
2022-08-06T08:21:53.270Z,3.65
2022-08-06T08:24:21.123Z,4.07
2022-08-06T08:27:04.486Z,4.07
2022-08-06T08:29:36.933Z,4.38
2022-08-06T08:32:14.743Z,3.78
2022-08-06T08:34:48.009Z,4.25
2022-08-06T08:37:19.663Z,4.07
2022-08-06T08:39:50.348Z,4.20
2022-08-06T08:42:31.897Z,4.25
2022-08-06T08:45:01.120Z,4.40
2022-08-06T08:47:46.634Z,4.32
2022-08-06T08:50:20.946Z,4.18
2022-08-06T08:52:53.817Z,4.20
2022-08-06T08:57:02.395Z,4.40
2022-08-06T08:58:40.242Z,4.50
2022-08-06T09:01:02.911Z,4.65
2022-08-06T09:03:30.659Z,4.25
2022-08-06T09:06:01.146Z,5.10
2022-08-06T09:08:47.218Z,4.57
2022-08-06T09:12:03.199Z,4.28
2022-08-06T09:14:09.334Z,4.85
2022-08-06T09:16:38.671Z,4.65
2022-08-06T09:19:18.261Z,4.40
2022-08-06T09:21:50.947Z,4.38
2022-08-06T09:24:24.829Z,4.43
2022-08-06T09:27:45.019Z,4.05
2022-08-06T09:30:00.854Z,3.67
2022-08-06T09:32:56.908Z,3.58
2022-08-06T09:35:43.699Z,3.35
2022-08-06T09:38:16.288Z,3.58
2022-08-06T09:41:14.877Z,3.03
2022-08-06T09:44:04.097Z,3.67
2022-08-06T09:46:41.367Z,2.80
2022-08-06T09:49:48.292Z,3.28
2022-08-06T09:52:13.608Z,2.90
2022-08-06T09:54:42.463Z,3.35
2022-08-06T09:57:11.727Z,3.10
2022-08-06T09:59:50.272Z,2.90
2022-08-06T10:02:23.901Z,3.45
2022-08-06T10:05:17.780Z,3.47
2022-08-06T10:07:52.816Z,3.22
2022-08-06T10:10:33.157Z,3.55
2022-08-06T10:13:19.491Z,3.10
2022-08-06T10:16:01.353Z,2.50
2022-08-06T10:18:56.292Z,3.63
2022-08-06T10:21:33.288Z,5.63
2022-08-06T10:24:10.354Z,3.33
2022-08-06T10:26:38.716Z,3.33
2022-08-06T10:29:14.398Z,3.13
2022-08-06T10:31:43.475Z,3.33
2022-08-06T10:34:12.974Z,3.00
2022-08-06T10:36:49.021Z,2.85
2022-08-06T10:40:08.076Z,3.22
2022-08-06T10:42:15.204Z,3.08
2022-08-06T10:44:47.981Z,2.90
2022-08-06T10:48:58.149Z,3.13
2022-08-06T10:50:25.003Z,2.78
2022-08-06T10:52:56.846Z,3.33
2022-08-06T10:55:25.539Z,2.70
2022-08-06T10:58:06.089Z,2.85
2022-08-06T11:00:39.459Z,3.42
2022-08-06T11:03:19.380Z,3.50
2022-08-06T11:05:55.114Z,2.70
2022-08-06T11:08:43.031Z,3.03
2022-08-06T11:12:05.446Z,3.28
2022-08-06T11:14:37.844Z,2.72
2022-08-06T11:17:11.499Z,2.80
2022-08-06T11:19:46.507Z,2.90
2022-08-06T11:22:35.704Z,3.20
2022-08-06T11:25:14.265Z,2.40
2022-08-06T11:27:54.079Z,2.53
2022-08-06T11:30:40.529Z,2.90
2022-08-06T11:35:49.101Z,2.80
2022-08-06T11:38:55.173Z,2.55
2022-08-06T11:41:51.032Z,2.60
2022-08-06T11:44:17.204Z,3.47
2022-08-06T11:46:48.180Z,4.38
2022-08-06T11:49:23.551Z,3.23
2022-08-06T11:52:04.256Z,13.68
2022-08-06T11:54:37.219Z,3.22
2022-08-06T11:57:40.586Z,2.67
2022-08-06T12:00:15.798Z,3.40
2022-08-06T12:02:54.838Z,3.15
2022-08-06T12:05:36.766Z,3.53
2022-08-06T12:08:38.747Z,3.90
2022-08-06T12:11:28.606Z,3.63
2022-08-06T12:14:31.801Z,3.45
2022-08-06T12:16:53.088Z,4.40
2022-08-06T12:19:24.585Z,4.47
2022-08-06T12:21:57.078Z,4.03
2022-08-06T12:24:44.940Z,4.00
2022-08-06T12:27:16.046Z,4.03
2022-08-06T12:29:44.635Z,3.90
2022-08-06T12:32:24.660Z,4.03
2022-08-06T12:34:58.508Z,3.90
2022-08-06T12:37:41.205Z,4.55
2022-08-06T12:40:37.068Z,4.93
2022-08-06T12:43:15.263Z,8.40
2022-08-06T12:46:06.739Z,6.68
2022-08-06T12:48:33.019Z,5.15
2022-08-06T12:51:11.314Z,4.88
2022-08-06T12:53:48.468Z,5.32
2022-08-06T12:56:29.421Z,4.82
2022-08-06T12:58:58.606Z,4.80
2022-08-06T13:02:11.856Z,4.03
2022-08-06T13:04:18.074Z,4.82
2022-08-06T13:06:47.046Z,4.32
2022-08-06T13:09:20.020Z,4.87
2022-08-06T13:14:20.448Z,4.70
2022-08-06T13:16:56.242Z,4.22
2022-08-06T13:19:32.582Z,4.70
2022-08-06T13:22:11.025Z,5.30
2022-08-06T13:25:01.722Z,5.15
2022-08-06T13:27:34.552Z,5.05
2022-08-06T13:30:32.048Z,5.25
2022-08-06T13:32:54.738Z,5.55
2022-08-06T13:35:30.749Z,5.18
2022-08-06T13:38:16.436Z,5.05
2022-08-06T13:40:51.359Z,5.40
2022-08-06T13:43:38.859Z,4.93
2022-08-06T13:46:17.194Z,5.15
2022-08-06T13:48:49.741Z,5.60
2022-08-06T13:51:27.339Z,5.30
2022-08-06T13:53:58.275Z,6.30
2022-08-06T13:56:31.292Z,9.95
2022-08-06T13:58:59.655Z,11.45
2022-08-06T14:01:44.503Z,8.80
2022-08-06T14:04:14.703Z,7.20
2022-08-06T14:06:46.045Z,6.10
2022-08-06T14:09:20.453Z,6.53
2022-08-06T14:11:53.826Z,6.22
2022-08-06T14:14:23.344Z,6.72
2022-08-06T14:16:51.704Z,6.22
2022-08-06T14:20:16.917Z,6.30
2022-08-06T14:22:08.293Z,6.55
2022-08-06T14:24:39.348Z,5.55
2022-08-06T14:27:15.986Z,5.82
2022-08-06T14:30:29.935Z,6.07
2022-08-06T14:32:32.578Z,10.77
2022-08-06T14:35:03.780Z,6.78
2022-08-06T14:37:49.961Z,8.77
2022-08-06T14:40:59.080Z,7.15
2022-08-06T14:43:56.433Z,6.82
2022-08-06T14:46:27.346Z,7.07
2022-08-06T14:48:57.986Z,6.88
2022-08-06T14:51:37.332Z,6.93
2022-08-06T14:54:14.712Z,7.97
2022-08-06T14:56:45.933Z,6.97
2022-08-06T14:59:23.221Z,6.30
2022-08-06T15:01:51.895Z,6.60
2022-08-06T15:04:22.896Z,6.10
2022-08-06T15:06:57.262Z,6.63
2022-08-06T15:09:28.238Z,6.82
2022-08-06T15:12:21.543Z,8.05
2022-08-06T15:15:09.224Z,6.00
2022-08-06T15:18:03.855Z,5.82
2022-08-06T15:20:30.074Z,5.97
2022-08-06T15:22:58.119Z,6.57
2022-08-06T15:26:01.343Z,6.32
2022-08-06T15:28:17.204Z,5.75
2022-08-06T15:30:46.788Z,6.35
2022-08-06T15:33:15.247Z,5.88
2022-08-06T15:35:57.906Z,6.75
2022-08-06T15:38:28.086Z,5.63
2022-08-06T15:41:00.941Z,6.60
2022-08-06T15:43:43.974Z,6.00
2022-08-06T15:46:14.506Z,6.60
2022-08-06T15:48:47.523Z,6.15
2022-08-06T15:51:28.956Z,6.55
2022-08-06T15:53:58.619Z,6.35
2022-08-06T15:56:39.016Z,6.30
2022-08-06T15:59:15.415Z,6.13
2022-08-06T16:02:01.889Z,6.75
2022-08-06T16:04:35.615Z,6.40
2022-08-06T16:07:04.174Z,11.35
2022-08-06T16:09:56.249Z,7.30
2022-08-06T16:12:21.900Z,7.15
2022-08-06T16:14:54.515Z,6.57
2022-08-06T16:17:33.538Z,8.05
2022-08-06T16:20:20.751Z,7.25
2022-08-06T16:22:50.866Z,7.30
2022-08-06T16:25:20.551Z,6.43
2022-08-06T16:27:49.415Z,11.32
2022-08-06T16:30:20.193Z,7.72
2022-08-06T16:32:50.361Z,6.68
2022-08-06T16:35:21.267Z,7.22
2022-08-06T16:37:51.735Z,7.22
2022-08-06T16:40:21.515Z,6.72
2022-08-06T16:42:49.717Z,7.25
2022-08-06T16:45:19.309Z,7.20
2022-08-06T16:48:20.504Z,8.35
2022-08-06T16:50:41.384Z,6.93
2022-08-06T16:54:11.640Z,6.75
2022-08-06T16:55:58.111Z,6.93
2022-08-06T16:58:35.296Z,9.60
2022-08-06T17:02:15.697Z,6.75
2022-08-06T17:04:00.435Z,6.60
2022-08-06T17:06:31.342Z,6.38
2022-08-06T17:09:17.049Z,6.15
2022-08-06T17:11:58.732Z,5.72
2022-08-06T17:14:32.121Z,5.22
2022-08-06T17:17:02.169Z,6.47
2022-08-06T17:19:38.185Z,6.25
2022-08-06T17:22:10.056Z,7.72
2022-08-06T17:24:42.488Z,6.88
2022-08-06T17:27:15.143Z,6.22
2022-08-06T17:32:54.537Z,5.43
2022-08-06T17:36:30.203Z,4.88
2022-08-06T17:38:15.740Z,5.10
2022-08-06T17:40:49.000Z,5.32
2022-08-06T17:43:22.907Z,5.10
2022-08-06T17:46:26.529Z,5.35
2022-08-06T17:48:54.588Z,5.18
2022-08-06T17:51:23.965Z,5.07
2022-08-06T17:54:45.302Z,5.30
2022-08-06T17:56:49.693Z,5.40
2022-08-06T17:59:22.151Z,5.45
2022-08-06T18:01:51.141Z,4.70
2022-08-06T18:04:22.273Z,5.13
2022-08-06T18:06:58.849Z,5.00
2022-08-06T18:10:08.962Z,4.38
2022-08-06T18:12:19.379Z,4.95
2022-08-06T18:14:52.230Z,5.15
2022-08-06T18:17:20.449Z,5.95
2022-08-06T18:19:48.257Z,5.72
2022-08-06T18:22:22.791Z,5.47
2022-08-06T18:24:52.434Z,6.22
2022-08-06T18:27:55.960Z,5.07
2022-08-06T18:30:11.027Z,5.50
2022-08-06T18:32:57.299Z,5.55
2022-08-06T18:35:33.297Z,5.65
2022-08-06T18:38:04.445Z,5.40
2022-08-06T18:40:40.398Z,5.57
2022-08-06T18:45:59.265Z,5.28
2022-08-06T18:48:28.277Z,5.93
2022-08-06T18:50:57.012Z,6.00
2022-08-06T18:54:01.309Z,6.60
2022-08-06T18:56:16.733Z,6.75
2022-08-06T18:58:47.042Z,6.40
2022-08-06T19:01:20.510Z,6.30
2022-08-06T19:03:50.166Z,6.50
2022-08-06T19:06:18.552Z,6.53
2022-08-06T19:08:59.083Z,6.57
2022-08-06T19:11:39.074Z,7.13
2022-08-06T19:14:18.472Z,7.03
2022-08-06T19:16:48.784Z,10.48
2022-08-06T19:19:46.158Z,7.55
2022-08-06T19:22:07.089Z,7.82
2022-08-06T19:24:40.375Z,7.65
2022-08-06T19:27:08.560Z,7.32
2022-08-06T19:29:58.481Z,6.95
2022-08-06T19:32:28.041Z,7.20
2022-08-06T19:34:59.665Z,7.32
2022-08-06T19:38:00.676Z,7.22
2022-08-06T19:40:35.073Z,6.68
2022-08-06T19:44:28.458Z,15.35
2022-08-06T19:46:25.448Z,8.45
2022-08-06T19:48:44.968Z,7.35
2022-08-06T19:52:01.382Z,7.68
2022-08-06T19:54:03.639Z,8.40
2022-08-06T19:56:34.478Z,7.55
2022-08-06T20:00:55.325Z,7.97
2022-08-06T20:02:09.152Z,8.32
2022-08-06T20:04:38.776Z,8.70
2022-08-06T20:07:24.314Z,8.38
2022-08-06T20:10:01.328Z,8.07
2022-08-06T20:12:34.923Z,9.57
2022-08-06T20:15:04.367Z,12.45
2022-08-06T20:17:46.268Z,10.18
2022-08-06T20:20:29.308Z,9.75
2022-08-06T20:22:59.034Z,9.38
2022-08-06T20:25:27.288Z,9.23
2022-08-06T20:29:08.230Z,11.55
2022-08-06T20:30:52.705Z,9.68
2022-08-06T20:33:23.951Z,10.40
2022-08-06T20:35:58.126Z,11.15
2022-08-06T20:38:40.608Z,11.02
2022-08-06T20:41:56.840Z,10.55
2022-08-06T20:44:08.269Z,11.23
2022-08-06T20:47:00.664Z,10.38
2022-08-06T20:49:47.701Z,9.88
2022-08-06T20:52:17.773Z,16.00
2022-08-06T20:54:51.229Z,12.40
2022-08-06T20:57:26.749Z,11.50
2022-08-06T20:59:58.282Z,11.50
2022-08-06T21:02:32.331Z,21.67
2022-08-06T21:05:12.605Z,12.27
2022-08-06T21:07:56.623Z,11.82
2022-08-06T21:10:30.653Z,11.10
2022-08-06T21:13:02.716Z,10.50
2022-08-06T21:15:54.508Z,11.52
2022-08-06T21:18:24.849Z,10.52
2022-08-06T21:20:54.070Z,11.38
2022-08-06T21:23:26.125Z,11.70
2022-08-06T21:26:11.537Z,12.07
2022-08-06T21:28:43.642Z,11.80
2022-08-06T21:31:24.293Z,12.70
2022-08-06T21:33:54.543Z,13.45
2022-08-06T21:36:25.907Z,14.30
2022-08-06T21:38:54.490Z,13.73
2022-08-06T21:41:54.253Z,13.73
2022-08-06T21:44:17.989Z,13.00
2022-08-06T21:46:50.060Z,13.00
2022-08-06T21:49:59.960Z,13.55
2022-08-06T21:52:16.188Z,18.80
2022-08-06T21:54:56.380Z,14.75
2022-08-06T21:57:25.361Z,14.43
2022-08-06T21:59:53.599Z,14.38
2022-08-06T22:02:28.030Z,13.68
2022-08-06T22:05:00.304Z,14.57
2022-08-06T22:08:07.078Z,13.95
2022-08-06T22:10:28.786Z,14.32
2022-08-06T22:13:11.682Z,14.45
2022-08-06T22:15:47.249Z,15.00
2022-08-06T22:18:28.862Z,14.77
2022-08-06T22:20:57.394Z,15.70
2022-08-06T22:23:28.632Z,14.55
2022-08-06T22:25:56.791Z,15.38
2022-08-06T22:28:34.020Z,15.23
2022-08-06T22:31:09.431Z,15.20
2022-08-06T22:33:58.608Z,16.58
2022-08-06T22:36:34.113Z,16.95
2022-08-06T22:39:02.990Z,17.15
2022-08-06T22:41:42.877Z,15.27
2022-08-06T22:44:34.492Z,17.40
2022-08-06T22:47:09.518Z,16.42
2022-08-06T22:50:01.078Z,15.75
2022-08-06T22:52:58.652Z,16.23
2022-08-06T22:55:18.031Z,15.40
2022-08-06T22:59:01.894Z,15.40
2022-08-06T23:00:35.604Z,15.65
2022-08-06T23:03:11.840Z,15.90
2022-08-06T23:05:44.444Z,15.43
2022-08-06T23:08:14.831Z,16.77
2022-08-06T23:10:48.238Z,17.48
2022-08-06T23:13:25.258Z,15.82
2022-08-06T23:15:54.492Z,16.42
2022-08-06T23:18:28.800Z,14.95
2022-08-06T23:21:20.251Z,14.90
2022-08-06T23:23:52.180Z,16.60
2022-08-06T23:26:32.072Z,15.70
2022-08-06T23:29:01.536Z,16.38
2022-08-06T23:31:34.248Z,16.63
2022-08-06T23:34:20.908Z,17.27
2022-08-06T23:36:57.145Z,17.42
2022-08-06T23:39:29.111Z,18.58
2022-08-06T23:42:14.452Z,17.27
2022-08-06T23:44:51.757Z,17.08
2022-08-06T23:47:54.379Z,18.40
2022-08-06T23:50:09.600Z,17.42
2022-08-06T23:52:41.894Z,18.35
2022-08-06T23:55:25.765Z,18.40
2022-08-06T23:57:56.784Z,17.95
